Reasnor, Iowa
Current Conditions -  °F | °C
As of 5:55 PM on Friday 24 Oct 2014 (Local Time) from KTNU Reporting Station
Haze Haze  
Wind Chill: 63°   Ceiling: 1600
Heat Index: 63°   Visibility: 6mi
Dew Point: 61°   Wind: 8mph
Humidity: 94%   Direction: 200°SSW
Pressure: 29.91"   Gusts: NA
Location:  41.58°N, 93.02°W
Report Text: KTNU 242255Z AUTO 20007KT 6SM BR OVC016 17/16 A2991 RMK AO2
Loading
Personal Weather Stations






























Interactive Weather Map
Tropical Storm Tracking
New forecast layout! Learn more

10-Day Weather Forecast

Advertisements
Track Severe Weather on mobile